sensor_id;sensor_type;location;lat;lon;timestamp;pressure;altitude;pressure_sealevel;temperature;humidity
54920;BME280;63804;53.120;8.764;2023-06-26T00:02:23;101388.56;;;23.75;60.55
54920;BME280;63804;53.120;8.764;2023-06-26T00:04:50;101381.63;;;23.72;60.55
54920;BME280;63804;53.120;8.764;2023-06-26T00:07:20;101380.81;;;23.72;60.04
54920;BME280;63804;53.120;8.764;2023-06-26T00:09:49;101376.97;;;23.66;60.62
54920;BME280;63804;53.120;8.764;2023-06-26T00:12:16;101378.34;;;23.62;60.60
54920;BME280;63804;53.120;8.764;2023-06-26T00:14:43;101381.22;;;23.60;60.72
54920;BME280;63804;53.120;8.764;2023-06-26T00:17:11;101372.03;;;23.70;60.67
54920;BME280;63804;53.120;8.764;2023-06-26T00:19:39;101378.97;;;23.64;60.65
54920;BME280;63804;53.120;8.764;2023-06-26T00:22:06;101372.81;;;23.55;61.01
54920;BME280;63804;53.120;8.764;2023-06-26T00:24:33;101372.16;;;23.53;60.97
54920;BME280;63804;53.120;8.764;2023-06-26T00:27:00;101360.97;;;23.56;60.69
54920;BME280;63804;53.120;8.764;2023-06-26T00:29:28;101369.44;;;23.53;60.41
54920;BME280;63804;53.120;8.764;2023-06-26T00:31:55;101369.44;;;23.53;61.11
54920;BME280;63804;53.120;8.764;2023-06-26T00:34:22;101363.75;;;23.48;61.31
54920;BME280;63804;53.120;8.764;2023-06-26T00:36:50;101376.13;;;23.43;61.13
54920;BME280;63804;53.120;8.764;2023-06-26T00:39:17;101365.69;;;23.40;61.69
54920;BME280;63804;53.120;8.764;2023-06-26T00:41:46;101366.41;;;23.33;61.58
54920;BME280;63804;53.120;8.764;2023-06-26T00:44:14;101363.50;;;23.35;61.63
54920;BME280;63804;53.120;8.764;2023-06-26T00:46:42;101364.63;;;23.26;62.34
54920;BME280;63804;53.120;8.764;2023-06-26T00:49:12;101359.41;;;23.24;61.77
54920;BME280;63804;53.120;8.764;2023-06-26T00:51:42;101366.97;;;23.29;62.39
54920;BME280;63804;53.120;8.764;2023-06-26T00:54:12;101350.81;;;23.21;62.16
54920;BME280;63804;53.120;8.764;2023-06-26T00:56:42;101349.50;;;23.17;62.17
54920;BME280;63804;53.120;8.764;2023-06-26T00:59:10;101349.25;;;23.03;62.65
54920;BME280;63804;53.120;8.764;2023-06-26T01:01:37;101346.84;;;23.08;63.23
54920;BME280;63804;53.120;8.764;2023-06-26T01:04:04;101349.09;;;23.05;63.15
54920;BME280;63804;53.120;8.764;2023-06-26T01:06:33;101350.16;;;22.96;63.80
54920;BME280;63804;53.120;8.764;2023-06-26T01:09:02;101345.22;;;22.99;63.36
54920;BME280;63804;53.120;8.764;2023-06-26T01:11:30;101330.91;;;22.91;64.11
54920;BME280;63804;53.120;8.764;2023-06-26T01:13:59;101334.28;;;22.93;63.97
54920;BME280;63804;53.120;8.764;2023-06-26T01:16:29;101326.19;;;22.93;64.33
54920;BME280;63804;53.120;8.764;2023-06-26T01:18:57;101320.66;;;22.86;64.67
54920;BME280;63804;53.120;8.764;2023-06-26T01:21:24;101324.19;;;22.86;64.07
54920;BME280;63804;53.120;8.764;2023-06-26T01:24:07;101318.31;;;22.83;64.45
54920;BME280;63804;53.120;8.764;2023-06-26T01:26:38;101319.34;;;22.82;64.46
54920;BME280;63804;53.120;8.764;2023-06-26T01:29:07;101317.03;;;22.71;64.96
54920;BME280;63804;53.120;8.764;2023-06-26T01:31:36;101313.38;;;22.63;64.97
54920;BME280;63804;53.120;8.764;2023-06-26T01:34:05;101312.53;;;22.63;65.05
54920;BME280;63804;53.120;8.764;2023-06-26T01:36:33;101307.00;;;22.56;65.20
54920;BME280;63804;53.120;8.764;2023-06-26T01:39:00;101318.50;;;22.50;65.06
54920;BME280;63804;53.120;8.764;2023-06-26T01:41:28;101305.97;;;22.57;64.94
54920;BME280;63804;53.120;8.764;2023-06-26T01:44:21;101303.34;;;22.72;65.17
54920;BME280;63804;53.120;8.764;2023-06-26T01:47:01;101291.63;;;22.57;64.85
54920;BME280;63804;53.120;8.764;2023-06-26T01:55:20;101282.88;;;22.55;65.06
54920;BME280;63804;53.120;8.764;2023-06-26T01:57:52;101284.09;;;22.52;65.00
54920;BME280;63804;53.120;8.764;2023-06-26T02:00:23;101287.81;;;22.51;65.15
54920;BME280;63804;53.120;8.764;2023-06-26T02:02:51;101280.41;;;22.45;65.74
54920;BME280;63804;53.120;8.764;2023-06-26T02:05:19;101284.50;;;22.41;65.40
54920;BME280;63804;53.120;8.764;2023-06-26T02:07:46;101275.22;;;22.35;65.83
54920;BME280;63804;53.120;8.764;2023-06-26T02:10:14;101279.25;;;22.39;65.88
54920;BME280;63804;53.120;8.764;2023-06-26T02:12:41;101273.84;;;22.39;65.95
54920;BME280;63804;53.120;8.764;2023-06-26T02:15:09;101265.94;;;22.38;65.56
54920;BME280;63804;53.120;8.764;2023-06-26T02:17:36;101262.28;;;22.31;65.93
54920;BME280;63804;53.120;8.764;2023-06-26T02:20:03;101269.34;;;22.32;66.19
54920;BME280;63804;53.120;8.764;2023-06-26T02:22:31;101260.53;;;22.38;65.82
54920;BME280;63804;53.120;8.764;2023-06-26T02:24:58;101261.25;;;22.32;65.99
54920;BME280;63804;53.120;8.764;2023-06-26T02:27:26;101257.56;;;22.33;66.28
54920;BME280;63804;53.120;8.764;2023-06-26T02:29:53;101250.44;;;22.32;66.17
54920;BME280;63804;53.120;8.764;2023-06-26T02:32:20;101249.13;;;22.28;65.71
54920;BME280;63804;53.120;8.764;2023-06-26T02:34:47;101247.66;;;22.25;65.85
54920;BME280;63804;53.120;8.764;2023-06-26T02:37:15;101252.84;;;22.27;65.88
54920;BME280;63804;53.120;8.764;2023-06-26T02:39:43;101244.94;;;22.25;66.12
54920;BME280;63804;53.120;8.764;2023-06-26T02:42:10;101242.59;;;22.22;66.57
54920;BME280;63804;53.120;8.764;2023-06-26T02:44:37;101243.97;;;22.18;66.79
54920;BME280;63804;53.120;8.764;2023-06-26T02:47:05;101238.56;;;22.18;66.28
54920;BME280;63804;53.120;8.764;2023-06-26T02:49:32;101242.09;;;22.19;66.35
54920;BME280;63804;53.120;8.764;2023-06-26T02:51:59;101247.00;;;22.15;66.26
54920;BME280;63804;53.120;8.764;2023-06-26T02:54:27;101247.34;;;22.12;66.49
54920;BME280;63804;53.120;8.764;2023-06-26T02:56:54;101246.19;;;22.14;66.66
54920;BME280;63804;53.120;8.764;2023-06-26T02:59:21;101237.00;;;22.24;65.88
54920;BME280;63804;53.120;8.764;2023-06-26T03:01:48;101235.34;;;22.23;66.09
54920;BME280;63804;53.120;8.764;2023-06-26T03:04:16;101232.84;;;22.21;66.02
54920;BME280;63804;53.120;8.764;2023-06-26T03:06:45;101227.94;;;22.17;66.25
54920;BME280;63804;53.120;8.764;2023-06-26T03:09:13;101229.66;;;22.09;66.56
54920;BME280;63804;53.120;8.764;2023-06-26T03:11:41;101225.09;;;22.18;66.51
54920;BME280;63804;53.120;8.764;2023-06-26T03:14:08;101219.34;;;22.21;65.88
54920;BME280;63804;53.120;8.764;2023-06-26T03:16:35;101213.44;;;22.18;66.21
54920;BME280;63804;53.120;8.764;2023-06-26T03:19:03;101218.78;;;22.26;66.15
54920;BME280;63804;53.120;8.764;2023-06-26T03:21:32;101219.81;;;22.25;65.54
54920;BME280;63804;53.120;8.764;2023-06-26T03:23:59;101218.47;;;22.21;66.06
54920;BME280;63804;53.120;8.764;2023-06-26T03:26:27;101216.81;;;22.11;66.01
54920;BME280;63804;53.120;8.764;2023-06-26T03:28:54;101216.81;;;22.11;65.77
54920;BME280;63804;53.120;8.764;2023-06-26T03:31:22;101216.81;;;22.20;66.12
54920;BME280;63804;53.120;8.764;2023-06-26T03:33:49;101218.00;;;22.17;65.74
54920;BME280;63804;53.120;8.764;2023-06-26T03:36:17;101211.75;;;22.17;65.62
54920;BME280;63804;53.120;8.764;2023-06-26T03:38:44;101209.38;;;22.22;65.58
54920;BME280;63804;53.120;8.764;2023-06-26T03:41:11;101207.16;;;22.25;65.43
54920;BME280;63804;53.120;8.764;2023-06-26T03:43:38;101212.38;;;22.27;65.41
54920;BME280;63804;53.120;8.764;2023-06-26T03:46:06;101205.78;;;22.29;65.47
54920;BME280;63804;53.120;8.764;2023-06-26T03:48:33;101199.38;;;22.30;65.17
54920;BME280;63804;53.120;8.764;2023-06-26T03:51:00;101200.19;;;22.31;65.01
54920;BME280;63804;53.120;8.764;2023-06-26T03:53:29;101194.16;;;22.29;65.35
54920;BME280;63804;53.120;8.764;2023-06-26T03:55:56;101193.28;;;22.28;65.48
54920;BME280;63804;53.120;8.764;2023-06-26T03:58:23;101192.59;;;22.34;64.61
54920;BME280;63804;53.120;8.764;2023-06-26T04:00:52;101190.09;;;22.33;65.08
54920;BME280;63804;53.120;8.764;2023-06-26T04:03:20;101184.00;;;22.31;65.71
54920;BME280;63804;53.120;8.764;2023-06-26T04:05:47;101195.41;;;22.41;65.53
54920;BME280;63804;53.120;8.764;2023-06-26T04:08:14;101189.66;;;22.44;65.10
54920;BME280;63804;53.120;8.764;2023-06-26T04:10:42;101183.16;;;22.53;64.12
54920;BME280;63804;53.120;8.764;2023-06-26T04:13:09;101188.56;;;22.53;64.34
54920;BME280;63804;53.120;8.764;2023-06-26T04:15:36;101189.25;;;22.55;64.45
54920;BME280;63804;53.120;8.764;2023-06-26T04:18:04;101193.63;;;22.56;64.46
54920;BME280;63804;53.120;8.764;2023-06-26T04:20:31;101187.84;;;22.59;64.29
54920;BME280;63804;53.120;8.764;2023-06-26T04:22:58;101188.69;;;22.60;64.42
54920;BME280;63804;53.120;8.764;2023-06-26T04:25:25;101187.47;;;22.62;64.04
54920;BME280;63804;53.120;8.764;2023-06-26T04:27:56;101177.69;;;22.61;63.73
54920;BME280;63804;53.120;8.764;2023-06-26T04:30:23;101179.50;;;22.69;63.35
54920;BME280;63804;53.120;8.764;2023-06-26T04:32:50;101175.59;;;22.72;62.87
54920;BME280;63804;53.120;8.764;2023-06-26T04:35:18;101166.94;;;22.76;63.25
54920;BME280;63804;53.120;8.764;2023-06-26T04:37:47;101167.06;;;22.83;63.13
54920;BME280;63804;53.120;8.764;2023-06-26T04:40:14;101154.88;;;22.87;62.79
54920;BME280;63804;53.120;8.764;2023-06-26T04:42:41;101159.06;;;22.90;62.06
54920;BME280;63804;53.120;8.764;2023-06-26T04:45:08;101157.19;;;22.90;61.85
54920;BME280;63804;53.120;8.764;2023-06-26T04:47:36;101158.19;;;22.89;61.64
54920;BME280;63804;53.120;8.764;2023-06-26T04:50:03;101152.94;;;22.96;61.39
54920;BME280;63804;53.120;8.764;2023-06-26T04:52:31;101152.94;;;22.96;61.35
54920;BME280;63804;53.120;8.764;2023-06-26T04:54:58;101146.16;;;23.00;61.39
54920;BME280;63804;53.120;8.764;2023-06-26T04:57:26;101150.50;;;23.01;60.78
54920;BME280;63804;53.120;8.764;2023-06-26T04:59:53;101147.91;;;23.07;60.57
54920;BME280;63804;53.120;8.764;2023-06-26T05:02:20;101148.69;;;23.16;60.13
54920;BME280;63804;53.120;8.764;2023-06-26T05:04:48;101149.59;;;23.23;59.66
54920;BME280;63804;53.120;8.764;2023-06-26T05:07:15;101138.06;;;23.29;59.33
54920;BME280;63804;53.120;8.764;2023-06-26T05:09:43;101137.31;;;23.35;59.16
54920;BME280;63804;53.120;8.764;2023-06-26T05:12:10;101129.38;;;23.34;59.01
54920;BME280;63804;53.120;8.764;2023-06-26T05:14:39;101136.84;;;23.32;58.71
54920;BME280;63804;53.120;8.764;2023-06-26T05:17:06;101121.84;;;23.29;58.55
54920;BME280;63804;53.120;8.764;2023-06-26T05:19:33;101125.00;;;23.33;58.43
54920;BME280;63804;53.120;8.764;2023-06-26T05:22:01;101116.91;;;23.33;58.41
54920;BME280;63804;53.120;8.764;2023-06-26T05:24:30;101108.13;;;23.31;58.52
54920;BME280;63804;53.120;8.764;2023-06-26T05:26:58;101109.63;;;23.33;58.50
54920;BME280;63804;53.120;8.764;2023-06-26T05:29:26;101105.88;;;23.34;59.06
54920;BME280;63804;53.120;8.764;2023-06-26T05:31:55;101112.78;;;23.37;59.04
54920;BME280;63804;53.120;8.764;2023-06-26T05:34:23;101125.63;;;23.35;59.04
54920;BME280;63804;53.120;8.764;2023-06-26T05:36:51;101121.72;;;23.38;58.60
54920;BME280;63804;53.120;8.764;2023-06-26T05:39:19;101122.00;;;23.43;58.13
54920;BME280;63804;53.120;8.764;2023-06-26T05:41:47;101125.56;;;23.43;58.33
54920;BME280;63804;53.120;8.764;2023-06-26T05:44:14;101128.72;;;23.47;58.55
54920;BME280;63804;53.120;8.764;2023-06-26T05:46:41;101124.41;;;23.52;58.65
54920;BME280;63804;53.120;8.764;2023-06-26T05:49:09;101124.63;;;23.51;58.82
54920;BME280;63804;53.120;8.764;2023-06-26T05:51:39;101109.97;;;23.45;59.01
54920;BME280;63804;53.120;8.764;2023-06-26T05:54:07;101113.34;;;23.47;59.33
54920;BME280;63804;53.120;8.764;2023-06-26T05:56:34;101114.19;;;23.48;58.97
54920;BME280;63804;53.120;8.764;2023-06-26T05:59:03;101118.19;;;23.52;59.46
54920;BME280;63804;53.120;8.764;2023-06-26T06:01:31;101110.25;;;23.50;59.19
54920;BME280;63804;53.120;8.764;2023-06-26T06:04:00;101115.28;;;23.53;59.50
54920;BME280;63804;53.120;8.764;2023-06-26T06:06:28;101118.91;;;23.60;59.14
54920;BME280;63804;53.120;8.764;2023-06-26T06:08:55;101109.75;;;23.62;59.00
54920;BME280;63804;53.120;8.764;2023-06-26T06:11:22;101115.81;;;23.64;58.99
54920;BME280;63804;53.120;8.764;2023-06-26T06:13:49;101117.16;;;23.68;58.86
54920;BME280;63804;53.120;8.764;2023-06-26T06:16:34;101110.31;;;23.72;59.01
54920;BME280;63804;53.120;8.764;2023-06-26T06:19:22;101111.00;;;23.74;58.64
54920;BME280;63804;53.120;8.764;2023-06-26T06:22:09;101114.16;;;23.77;58.46
54920;BME280;63804;53.120;8.764;2023-06-26T06:24:56;101115.63;;;23.80;58.09
54920;BME280;63804;53.120;8.764;2023-06-26T06:27:44;101099.66;;;23.85;58.10
54920;BME280;63804;53.120;8.764;2023-06-26T06:30:31;101101.13;;;23.88;57.91
54920;BME280;63804;53.120;8.764;2023-06-26T06:33:30;101104.28;;;23.91;57.70
54920;BME280;63804;53.120;8.764;2023-06-26T06:36:17;101107.91;;;23.98;57.21
54920;BME280;63804;53.120;8.764;2023-06-26T06:39:04;101107.31;;;24.03;57.03
54920;BME280;63804;53.120;8.764;2023-06-26T06:41:51;101109.28;;;24.09;57.03
54920;BME280;63804;53.120;8.764;2023-06-26T06:44:38;101109.53;;;24.14;56.64
54920;BME280;63804;53.120;8.764;2023-06-26T06:47:25;101119.13;;;24.17;56.86
54920;BME280;63804;53.120;8.764;2023-06-26T06:50:12;101134.41;;;24.24;56.47
54920;BME280;63804;53.120;8.764;2023-06-26T06:53:00;101118.16;;;24.24;56.39
54920;BME280;63804;53.120;8.764;2023-06-26T06:55:47;101114.03;;;24.28;56.03
54920;BME280;63804;53.120;8.764;2023-06-26T06:58:34;101111.97;;;24.30;56.37
54920;BME280;63804;53.120;8.764;2023-06-26T07:01:22;101120.84;;;24.39;56.62
54920;BME280;63804;53.120;8.764;2023-06-26T07:04:09;101119.84;;;24.47;56.19
54920;BME280;63804;53.120;8.764;2023-06-26T07:06:57;101126.16;;;24.54;56.20
54920;BME280;63804;53.120;8.764;2023-06-26T07:09:44;101133.88;;;24.57;56.07
54920;BME280;63804;53.120;8.764;2023-06-26T07:12:31;101125.81;;;24.64;55.99
54920;BME280;63804;53.120;8.764;2023-06-26T07:15:18;101129.22;;;24.72;55.78
54920;BME280;63804;53.120;8.764;2023-06-26T07:18:05;101129.66;;;24.76;55.78
54920;BME280;63804;53.120;8.764;2023-06-26T07:20:53;101126.84;;;24.63;55.91
54920;BME280;63804;53.120;8.764;2023-06-26T07:23:40;101134.09;;;24.55;56.61
54920;BME280;63804;53.120;8.764;2023-06-26T07:26:27;101145.97;;;24.54;56.73
54920;BME280;63804;53.120;8.764;2023-06-26T07:29:25;101154.25;;;24.53;57.05
54920;BME280;63804;53.120;8.764;2023-06-26T07:32:13;101149.69;;;24.53;57.28
54920;BME280;63804;53.120;8.764;2023-06-26T07:35:01;101152.28;;;24.62;56.96
54920;BME280;63804;53.120;8.764;2023-06-26T07:37:48;101160.88;;;24.72;56.50
54920;BME280;63804;53.120;8.764;2023-06-26T07:40:35;101164.78;;;24.91;56.31
54920;BME280;63804;53.120;8.764;2023-06-26T07:43:23;101157.91;;;25.16;55.03
54920;BME280;63804;53.120;8.764;2023-06-26T07:46:10;101159.22;;;25.27;54.06
54920;BME280;63804;53.120;8.764;2023-06-26T07:48:57;101164.88;;;25.32;54.78
54920;BME280;63804;53.120;8.764;2023-06-26T07:51:44;101184.94;;;25.38;54.00
54920;BME280;63804;53.120;8.764;2023-06-26T07:54:32;101179.97;;;25.41;54.53
54920;BME280;63804;53.120;8.764;2023-06-26T07:57:19;101204.81;;;25.51;54.44
54920;BME280;63804;53.120;8.764;2023-06-26T08:00:06;101219.00;;;25.47;54.80
54920;BME280;63804;53.120;8.764;2023-06-26T08:02:53;101231.34;;;25.49;55.21
54920;BME280;63804;53.120;8.764;2023-06-26T08:05:41;101231.84;;;25.32;56.13
54920;BME280;63804;53.120;8.764;2023-06-26T08:08:28;101226.19;;;25.33;56.43
54920;BME280;63804;53.120;8.764;2023-06-26T08:11:16;101235.03;;;25.42;56.25
54920;BME280;63804;53.120;8.764;2023-06-26T08:14:03;101216.69;;;25.44;56.45
54920;BME280;63804;53.120;8.764;2023-06-26T08:16:50;101207.31;;;25.46;56.67
54920;BME280;63804;53.120;8.764;2023-06-26T08:19:17;101228.56;;;25.43;56.67
54920;BME280;63804;53.120;8.764;2023-06-26T08:21:45;101237.53;;;25.43;56.43
54920;BME280;63804;53.120;8.764;2023-06-26T08:24:12;101244.72;;;25.23;56.72
54920;BME280;63804;53.120;8.764;2023-06-26T08:26:58;101253.31;;;24.84;57.55
54920;BME280;63804;53.120;8.764;2023-06-26T08:29:45;101256.47;;;24.44;59.42
54920;BME280;63804;53.120;8.764;2023-06-26T08:32:32;101277.44;;;24.06;60.31
54920;BME280;63804;53.120;8.764;2023-06-26T08:35:20;101303.00;;;23.89;61.77
54920;BME280;63804;53.120;8.764;2023-06-26T08:38:07;101320.28;;;23.50;64.98
54920;BME280;63804;53.120;8.764;2023-06-26T08:40:56;101313.47;;;23.01;69.03
54920;BME280;63804;53.120;8.764;2023-06-26T08:43:43;101309.38;;;22.82;69.43
54920;BME280;63804;53.120;8.764;2023-06-26T08:46:31;101318.94;;;22.62;70.70
54920;BME280;63804;53.120;8.764;2023-06-26T08:49:21;101320.50;;;22.56;71.50
54920;BME280;63804;53.120;8.764;2023-06-26T08:52:24;101317.31;;;22.53;71.62
54920;BME280;63804;53.120;8.764;2023-06-26T08:55:16;101315.50;;;22.45;71.96
54920;BME280;63804;53.120;8.764;2023-06-26T08:58:05;101318.34;;;22.52;72.28
54920;BME280;63804;53.120;8.764;2023-06-26T09:00:52;101327.41;;;22.59;71.88
54920;BME280;63804;53.120;8.764;2023-06-26T09:03:40;101325.84;;;22.65;71.73
54920;BME280;63804;53.120;8.764;2023-06-26T09:06:30;101337.22;;;22.83;71.17
54920;BME280;63804;53.120;8.764;2023-06-26T09:09:17;101341.41;;;22.94;70.60
54920;BME280;63804;53.120;8.764;2023-06-26T09:12:04;101342.59;;;22.91;70.17
54920;BME280;63804;53.120;8.764;2023-06-26T09:14:52;101348.13;;;22.98;70.47
54920;BME280;63804;53.120;8.764;2023-06-26T09:17:42;101356.72;;;23.01;69.91
54920;BME280;63804;53.120;8.764;2023-06-26T09:20:29;101366.63;;;23.09;69.51
54920;BME280;63804;53.120;8.764;2023-06-26T09:23:21;101366.34;;;23.19;68.86
54920;BME280;63804;53.120;8.764;2023-06-26T09:26:08;101366.13;;;23.28;67.46
54920;BME280;63804;53.120;8.764;2023-06-26T09:28:56;101366.47;;;23.25;67.62
54920;BME280;63804;53.120;8.764;2023-06-26T09:31:44;101372.59;;;23.19;67.16
54920;BME280;63804;53.120;8.764;2023-06-26T09:34:32;101374.94;;;23.22;67.14
54920;BME280;63804;53.120;8.764;2023-06-26T09:37:19;101380.97;;;23.32;66.79
54920;BME280;63804;53.120;8.764;2023-06-26T10:33:59;101436.91;;;24.07;53.46
54920;BME280;63804;53.120;8.764;2023-06-26T10:36:47;101425.34;;;23.99;53.98
54920;BME280;63804;53.120;8.764;2023-06-26T10:48:56;101460.06;;;23.49;52.40
54920;BME280;63804;53.120;8.764;2023-06-26T10:51:48;101459.69;;;23.52;53.09
54920;BME280;63804;53.120;8.764;2023-06-26T10:54:38;101452.00;;;23.64;52.84
54920;BME280;63804;53.120;8.764;2023-06-26T10:57:25;101444.72;;;23.88;52.26
54920;BME280;63804;53.120;8.764;2023-06-26T11:00:16;101454.88;;;24.23;51.22
54920;BME280;63804;53.120;8.764;2023-06-26T11:03:22;101468.28;;;24.17;51.31
54920;BME280;63804;53.120;8.764;2023-06-26T11:06:10;101476.19;;;24.03;52.11
54920;BME280;63804;53.120;8.764;2023-06-26T11:09:06;101474.59;;;23.94;52.57
54920;BME280;63804;53.120;8.764;2023-06-26T11:11:55;101479.47;;;23.76;52.40
54920;BME280;63804;53.120;8.764;2023-06-26T11:14:26;101483.06;;;23.91;51.08
54920;BME280;63804;53.120;8.764;2023-06-26T11:16:57;101476.03;;;24.05;49.50
54920;BME280;63804;53.120;8.764;2023-06-26T11:19:26;101481.34;;;24.13;49.40
54920;BME280;63804;53.120;8.764;2023-06-26T11:21:58;101474.28;;;24.27;49.38
54920;BME280;63804;53.120;8.764;2023-06-26T11:24:26;101503.97;;;24.35;49.07
54920;BME280;63804;53.120;8.764;2023-06-26T11:27:11;101499.19;;;24.22;48.82
54920;BME280;63804;53.120;8.764;2023-06-26T11:29:58;101501.97;;;24.14;48.27
54920;BME280;63804;53.120;8.764;2023-06-26T11:32:45;101497.44;;;23.92;49.32
54920;BME280;63804;53.120;8.764;2023-06-26T11:35:33;101485.31;;;23.88;49.23
54920;BME280;63804;53.120;8.764;2023-06-26T11:38:20;101483.19;;;23.98;48.44
54920;BME280;63804;53.120;8.764;2023-06-26T11:41:07;101490.03;;;24.38;47.24
54920;BME280;63804;53.120;8.764;2023-06-26T11:43:55;101488.03;;;24.40;46.71
54920;BME280;63804;53.120;8.764;2023-06-26T11:46:42;101481.91;;;24.38;46.90
54920;BME280;63804;53.120;8.764;2023-06-26T11:49:29;101480.97;;;24.54;47.42
54920;BME280;63804;53.120;8.764;2023-06-26T11:52:16;101481.78;;;24.54;47.09
54920;BME280;63804;53.120;8.764;2023-06-26T11:55:04;101490.44;;;24.65;47.14
54920;BME280;63804;53.120;8.764;2023-06-26T11:57:55;101491.78;;;24.69;47.22
54920;BME280;63804;53.120;8.764;2023-06-26T12:00:42;101498.38;;;24.96;46.44
54920;BME280;63804;53.120;8.764;2023-06-26T12:03:31;101505.38;;;24.90;46.31
54920;BME280;63804;53.120;8.764;2023-06-26T12:06:19;101505.69;;;24.80;46.15
54920;BME280;63804;53.120;8.764;2023-06-26T12:09:10;101508.66;;;25.00;45.73
54920;BME280;63804;53.120;8.764;2023-06-26T12:11:58;101502.13;;;25.10;45.54
54920;BME280;63804;53.120;8.764;2023-06-26T12:14:46;101507.06;;;24.91;45.93
54920;BME280;63804;53.120;8.764;2023-06-26T12:17:37;101515.22;;;24.76;45.94
54920;BME280;63804;53.120;8.764;2023-06-26T12:20:24;101517.38;;;24.66;46.27
54920;BME280;63804;53.120;8.764;2023-06-26T12:23:13;101520.81;;;24.45;46.20
54920;BME280;63804;53.120;8.764;2023-06-26T12:26:16;101509.72;;;24.55;46.07
54920;BME280;63804;53.120;8.764;2023-06-26T12:29:08;101525.03;;;24.63;46.58
54920;BME280;63804;53.120;8.764;2023-06-26T12:31:55;101519.31;;;24.72;46.19
54920;BME280;63804;53.120;8.764;2023-06-26T12:34:41;101526.59;;;25.01;43.18
54920;BME280;63804;53.120;8.764;2023-06-26T12:37:09;101522.38;;;25.14;43.46
54920;BME280;63804;53.120;8.764;2023-06-26T12:39:53;101520.09;;;25.32;43.39
54920;BME280;63804;53.120;8.764;2023-06-26T12:42:28;101522.19;;;25.30;43.65
54920;BME280;63804;53.120;8.764;2023-06-26T12:44:56;101517.44;;;25.17;44.39
54920;BME280;63804;53.120;8.764;2023-06-26T12:47:25;101533.69;;;24.88;45.34
54920;BME280;63804;53.120;8.764;2023-06-26T12:49:54;101536.91;;;24.76;45.42
54920;BME280;63804;53.120;8.764;2023-06-26T12:52:21;101535.66;;;24.79;45.40
54920;BME280;63804;53.120;8.764;2023-06-26T12:54:53;101523.81;;;24.65;45.13
54920;BME280;63804;53.120;8.764;2023-06-26T12:57:21;101537.44;;;24.57;45.38
54920;BME280;63804;53.120;8.764;2023-06-26T12:59:49;101528.00;;;24.53;45.24
54920;BME280;63804;53.120;8.764;2023-06-26T13:02:17;101516.06;;;24.62;44.77
54920;BME280;63804;53.120;8.764;2023-06-26T13:04:45;101525.69;;;24.50;44.83
54920;BME280;63804;53.120;8.764;2023-06-26T13:07:12;101520.72;;;24.53;44.50
54920;BME280;63804;53.120;8.764;2023-06-26T13:09:40;101524.28;;;24.69;44.34
54920;BME280;63804;53.120;8.764;2023-06-26T13:12:08;101523.53;;;24.90;43.97
54920;BME280;63804;53.120;8.764;2023-06-26T13:14:35;101516.78;;;25.00;43.25
54920;BME280;63804;53.120;8.764;2023-06-26T13:17:03;101520.22;;;25.09;43.24
54920;BME280;63804;53.120;8.764;2023-06-26T13:19:35;101521.25;;;25.23;43.18
54920;BME280;63804;53.120;8.764;2023-06-26T13:22:03;101531.66;;;25.19;42.96
54920;BME280;63804;53.120;8.764;2023-06-26T13:24:30;101521.91;;;25.25;43.13
54920;BME280;63804;53.120;8.764;2023-06-26T13:26:57;101525.41;;;25.40;43.46
54920;BME280;63804;53.120;8.764;2023-06-26T13:29:25;101535.91;;;25.28;43.12
54920;BME280;63804;53.120;8.764;2023-06-26T13:31:52;101534.41;;;25.26;43.05
54920;BME280;63804;53.120;8.764;2023-06-26T13:34:22;101545.00;;;25.21;42.78
54920;BME280;63804;53.120;8.764;2023-06-26T13:36:56;101542.94;;;25.23;43.05
54920;BME280;63804;53.120;8.764;2023-06-26T13:39:23;101532.91;;;25.38;43.21
54920;BME280;63804;53.120;8.764;2023-06-26T13:41:51;101520.34;;;25.37;42.77
54920;BME280;63804;53.120;8.764;2023-06-26T13:44:18;101524.66;;;25.46;42.79
54920;BME280;63804;53.120;8.764;2023-06-26T13:47:01;101526.66;;;25.38;43.01
54920;BME280;63804;53.120;8.764;2023-06-26T13:49:29;101544.81;;;25.59;42.13
54920;BME280;63804;53.120;8.764;2023-06-26T13:51:56;101534.31;;;25.34;42.38
54920;BME280;63804;53.120;8.764;2023-06-26T13:54:24;101540.41;;;25.21;42.69
54920;BME280;63804;53.120;8.764;2023-06-26T13:56:51;101543.69;;;25.17;42.36
54920;BME280;63804;53.120;8.764;2023-06-26T13:59:18;101545.47;;;25.10;42.34
54920;BME280;63804;53.120;8.764;2023-06-26T14:01:48;101549.88;;;25.11;42.67
54920;BME280;63804;53.120;8.764;2023-06-26T14:04:15;101561.91;;;25.08;42.24
54920;BME280;63804;53.120;8.764;2023-06-26T14:06:42;101571.56;;;25.11;41.66
54920;BME280;63804;53.120;8.764;2023-06-26T14:09:10;101559.94;;;25.02;41.35
54920;BME280;63804;53.120;8.764;2023-06-26T14:11:37;101563.22;;;24.83;42.02
54920;BME280;63804;53.120;8.764;2023-06-26T14:14:04;101550.06;;;24.94;41.83
54920;BME280;63804;53.120;8.764;2023-06-26T14:16:32;101554.38;;;24.89;42.20
54920;BME280;63804;53.120;8.764;2023-06-26T14:19:00;101552.28;;;24.76;41.98
54920;BME280;63804;53.120;8.764;2023-06-26T14:21:28;101559.13;;;24.72;42.58
54920;BME280;63804;53.120;8.764;2023-06-26T14:23:55;101560.72;;;24.66;42.72
54920;BME280;63804;53.120;8.764;2023-06-26T14:26:22;101564.63;;;24.64;42.87
54920;BME280;63804;53.120;8.764;2023-06-26T14:28:50;101567.63;;;24.54;42.97
54920;BME280;63804;53.120;8.764;2023-06-26T14:31:17;101575.75;;;24.54;43.18
54920;BME280;63804;53.120;8.764;2023-06-26T14:33:44;101579.94;;;24.56;42.90
54920;BME280;63804;53.120;8.764;2023-06-26T14:36:12;101588.50;;;24.45;43.42
54920;BME280;63804;53.120;8.764;2023-06-26T14:38:39;101596.09;;;24.50;42.84
54920;BME280;63804;53.120;8.764;2023-06-26T14:41:07;101586.47;;;24.47;43.52